Terminal Aerodrome Forecast
Issued by NWS Albany, NY

Home | Current Version | Previous Version | Text Only | Print | Product List | Glossary On
Versions: 1 2 3 4 5 6 7 8 9 10 11 12 13 14 15 16 17 18 19 20 21
000
FTUS41 KALY 051142
TAFPOU
TAF
KPOU 051142Z 0512/0612 36012KT P6SM OVC050
      TEMPO 0512/0515 4SM -SN BR OVC035
     FM051600 32010KT P6SM BKN050 OVC100
     FM052300 35006KT P6SM SCT050
     FM060200 36005KT P6SM SKC
     FM060700 VRB03KT P6SM SKC=

USA.gov is the U.S. government's official web portal to all federal, state and local government web resources and services.